TFM - Tactical Decision Aid (Experimental) INFO Settings

ID: Runway Winds: METAR Board: Map:

Kclt - Charlotte-Douglas Intl

Updated at: 2304 UTC 22 Oct 2014
Latest TAF at: 2052 UTC 22 Oct 2014

TAF Board

Time2252Z23/00Z23/01Z23/02Z23/03Z23/04Z23/05Z23/06Z23/07Z23/08Z23/09Z23/10Z23/11Z23/12Z
TypeOBSPRVLPRVLPRVLPRVLPRVLPRVLPRVLPRVLPRVLPRVLPRVLPRVLPRVL
VIS10>6>6>6>6>6>6>6>6>6>6>6>6>6
CIG----------------------------
CoverFEWSKCSKCSKCSKCSKCSKCSKCSKCSKCSKCSKCSKCSKC
FltCat--VFRVFRVFRVFRVFRVFRVFRVFRVFRVFRVFRVFRVFR
WX----------------------------
WDir340340340340340340340330330330330330330330
WSpd109999994444444
WGst----------------------------
TAF
KCLT 222052Z 2221/2318 34010G15KT P6SM FEW060
  FM230000 34009KT P6SM SKC
  FM230600 33004KT P6SM SKC


METAR
KCLT 222252Z 34010KT 10SM FEW060 14/03 A3006 RMK AO2 SLP179 T01390033
KCLT 222152Z 34011G19KT 10SM FEW060 17/03 A3005 RMK AO2 SLP174 T01670033

TAF/METAR Board Legend

Hazard VFR MVFR IFR LIFR
Visibility (sm) >5 3≤X≤5 1≤X<3 <1
Ceiling (100 ft) >30 10≤X≤30 5≤X<10 <5
Wind Speed (kt) <10 10≤X<20 20≤X<30 ≥30
Wind Gust (kt) <15 15≤X<25 25≤X<35 ≥35
Weather No Wx Reported VCTS,-TS,-FZRA TS,FZRA +TS,+FZRA




Page loaded:  23:04 UTC  |   04:04 PM Pacific  |   05:04 PM Mountain  |   06:04 PM Central  |   07:04 PM Eastern

 

ADVISORIES

FORECASTS

FORECASTS

OBSERVATIONS

USER TOOLS

ABOUT US